Time;durP1;ratioP1;P1;durP2;ratioP2;P2;SDS_P1;SDS_P2;PMS_P1;PMS_P2;Temp;Humidity;BMP_temperature;BMP_pressure;BME280_temperature;BME280_humidity;BME280_pressure;Samples;Min_cycle;Max_cycle;Signal;HPM_P1;HPM_P2
2022/06/19 00:12:02;;;;;;;;;;;;;;;;;;;;;
2022/06/19 00:17:56;;;;;;;4.05;1.10;;;;;;;-145.06;0.00;60892.56;5953511;23;20010;-94
2022/06/19 00:21:05;;;;;;;3.33;1.20;;;;;;;-145.06;0.00;60892.56;5943108;23;20088;-95
2022/06/19 00:24:41;;;;;;;1.58;0.82;;;;;;;-145.06;0.00;60892.56;5942656;23;20006;-95
2022/06/19 00:27:57;;;;;;;2.78;0.80;;;;;;;-145.06;0.00;60892.56;5940688;23;20009;-94
2022/06/19 00:30:49;;;;;;;2.47;1.00;;;;;;;-145.06;0.00;60892.56;5942815;23;20002;-95
2022/06/19 00:34:03;;;;;;;2.15;1.00;;;;;;;-145.06;0.00;60892.56;5942579;23;20005;-94
2022/06/19 00:36:58;;;;;;;;;;;;;;;;;;;;;
2022/06/19 00:39:53;;;;;;;;;;;;;;;;;;;;;
2022/06/19 00:43:16;;;;;;;;;;;;;;;;;;;;;
2022/06/19 00:46:46;;;;;;;3.45;1.15;;;;;;;-145.06;0.00;60892.56;5953771;23;20041;-93
2022/06/19 00:50:07;;;;;;;1.70;1.10;;;;;;;-145.06;0.00;60892.56;5942507;23;20037;-93
2022/06/19 00:53:25;;;;;;;1.65;1.15;;;;;;;-145.06;0.00;60892.56;5943568;23;20084;-93
2022/06/19 01:00:20;;;;;;;;;;;;;;;;;;;;;
2022/06/19 01:07:05;;;;;;;1.25;1.05;;;;;;;-145.06;0.00;60892.56;5953093;23;20313;-93
2022/06/19 01:10:15;;;;;;;;;;;;;;;;;;;;;
2022/06/19 01:13:29;;;;;;;;;;;;;;;;;;;;;
2022/06/19 01:19:53;;;;;;;6.28;1.02;;;;;;;-145.06;0.00;60892.56;5953146;23;20006;-94
2022/06/19 01:23:00;;;;;;;3.22;1.08;;;;;;;-145.06;0.00;60892.56;5941974;23;20001;-93
2022/06/19 01:26:23;;;;;;;4.30;1.10;;;;;;;-145.06;0.00;60892.56;5942149;23;20002;-94
2022/06/19 01:33:01;;;;;;;;;;;;;;;;;;;;;
2022/06/19 01:36:20;;;;;;;;;;;;;;;;;;;;;
2022/06/19 01:39:50;;;;;;;;;;;;;;;;;;;;;
2022/06/19 01:43:05;;;;;;;1.90;1.17;;;;;;;-145.06;0.00;60892.56;5952734;23;20080;-94
2022/06/19 01:46:13;;;;;;;;;;;;;;;;;;;;;
2022/06/19 01:52:31;;;;;;;1.00;0.90;;;;;;;-145.06;0.00;60892.56;5952589;23;20005;-94
2022/06/19 01:55:19;;;;;;;3.13;1.20;;;;;;;-145.06;0.00;60892.56;5942256;23;20073;-96
2022/06/19 01:58:06;;;;;;;2.00;1.02;;;;;;;-145.06;0.00;60892.56;5941900;23;20010;-95
2022/06/19 02:00:56;;;;;;;1.52;1.00;;;;;;;-145.06;0.00;60892.56;5942426;23;20483;-94
2022/06/19 02:04:06;;;;;;;2.40;1.40;;;;;;;-145.06;0.00;60892.56;5942803;23;20452;-93
2022/06/19 02:07:14;;;;;;;2.28;1.38;;;;;;;-145.06;0.00;60892.56;5942081;23;20001;-95
2022/06/19 02:10:05;;;;;;;2.72;1.17;;;;;;;-145.06;0.00;60892.56;5942306;23;20060;-96
2022/06/19 02:12:48;;;;;;;1.92;1.13;;;;;;;-145.06;0.00;60892.56;5942323;23;20309;-95
2022/06/19 02:15:41;;;;;;;1.60;1.20;;;;;;;-145.06;0.00;60892.56;5942270;23;20335;-96
2022/06/19 02:18:36;;;;;;;1.73;1.05;;;;;;;-145.06;0.00;60892.56;5942413;23;20455;-96
2022/06/19 02:21:48;;;;;;;1.75;1.13;;;;;;;-145.06;0.00;60892.56;5942069;23;20429;-96
2022/06/19 02:24:29;;;;;;;3.33;1.25;;;;;;;-145.06;0.00;60892.56;5920478;23;20006;-95
2022/06/19 02:27:23;;;;;;;3.03;1.50;;;;;;;-145.06;0.00;60892.56;5942109;23;20314;-96
2022/06/19 02:30:29;;;;;;;2.58;1.60;;;;;;;-145.06;0.00;60892.56;5941854;23;20433;-94
2022/06/19 02:33:15;;;;;;;2.42;1.40;;;;;;;-145.06;0.00;60892.56;5942169;23;20080;-96
2022/06/19 02:36:32;;;;;;;1.88;1.20;;;;;;;-145.06;0.00;60892.56;5944281;23;20009;-96
2022/06/19 02:39:24;;;;;;;1.13;1.02;;;;;;;-145.06;0.00;60892.56;5944386;23;20005;-95
2022/06/19 02:42:09;;;;;;;3.65;1.50;;;;;;;-145.06;0.00;60892.56;5943868;23;20017;-95
2022/06/19 02:44:54;;;;;;;2.35;1.17;;;;;;;-145.06;0.00;60892.56;5943638;23;19998;-96
2022/06/19 02:48:54;;;;;;;;;;;;;;;;;;;;;
2022/06/19 02:51:41;;;;;;;3.53;1.00;;;;;;;-145.06;0.00;60892.56;5867236;23;20003;-96
2022/06/19 02:54:40;;;;;;;2.30;0.90;;;;;;;-145.06;0.00;60892.56;5943635;23;20005;-96
2022/06/19 02:57:22;;;;;;;;;;;;;;;-145.06;0.00;60892.56;5945591;23;20444;-94
2022/06/19 03:00:05;;;;;;;2.78;0.68;;;;;;;-145.06;0.00;60892.56;5952686;23;19893;-95
2022/06/19 03:08:43;;;;;;;1.05;0.70;;;;;;;-145.06;0.00;60892.56;5895965;23;20014;-92
2022/06/19 03:14:58;;;;;;;1.17;0.60;;;;;;;-145.06;0.00;60892.56;5872538;23;20085;-92
2022/06/19 03:17:43;;;;;;;1.45;0.43;;;;;;;-145.06;0.00;60892.56;5907674;23;20010;-92
2022/06/19 03:21:01;;;;;;;;;;;;;;;;;;;;;
2022/06/19 03:23:40;;;;;;;0.98;0.60;;;;;;;-145.06;0.00;60892.56;5897401;23;19998;-93
2022/06/19 03:29:57;;;;;;;;;;;;;;;;;;;;;
2022/06/19 04:05:15;;;;;;;2.35;1.05;;;;;;;-145.06;0.00;60892.56;5928578;23;19996;-93
2022/06/19 04:07:55;;;;;;;2.80;1.08;;;;;;;-145.06;0.00;60892.56;5942918;23;20009;-92
2022/06/19 04:10:44;;;;;;;2.55;0.77;;;;;;;-145.06;0.00;60892.56;5943443;23;20585;-93
2022/06/19 04:31:38;;;;;;;1.85;0.60;;;;;;;-145.06;0.00;60892.56;5866394;23;20595;-93
2022/06/19 04:41:14;;;;;;;2.20;0.50;;;;;;;-145.06;0.00;60892.56;5838183;23;20070;-93
2022/06/19 04:44:37;;;;;;;;;;;;;;;;;;;;;
2022/06/19 04:47:49;;;;;;;4.10;0.60;;;;;;;-145.06;0.00;60892.56;5944275;23;20001;-93
2022/06/19 06:12:35;;;;;;;;;;;;;;;;;;;;;
2022/06/19 06:27:54;;;;;;;1.50;0.30;;;;;;;-145.06;0.00;60892.56;5900019;23;19932;-92
2022/06/19 07:06:17;;;;;;;1.65;0.65;;;;;;;-145.06;0.00;60892.56;5918489;23;19917;-93
2022/06/19 07:18:31;;;;;;;4.93;1.00;;;;;;;-145.06;0.00;60892.56;5941724;23;20321;-93
2022/06/19 07:21:31;;;;;;;4.75;1.20;;;;;;;-145.06;0.00;60892.56;5942877;23;20088;-93
2022/06/19 07:24:10;;;;;;;3.08;1.10;;;;;;;-145.06;0.00;60892.56;5943131;23;19997;-93
2022/06/19 07:27:02;;;;;;;3.23;1.00;;;;;;;-145.06;0.00;60892.56;5944158;23;20002;-94
2022/06/19 07:29:45;;;;;;;1.52;0.82;;;;;;;-145.06;0.00;60892.56;5943473;23;20009;-91
2022/06/19 07:32:24;;;;;;;1.80;0.52;;;;;;;-145.06;0.00;60892.56;5943662;23;20014;-93
2022/06/19 07:39:21;;;;;;;2.17;0.70;;;;;;;-145.06;0.00;60892.56;5866356;23;20007;-93
2022/06/19 07:42:11;;;;;;;1.85;0.60;;;;;;;-145.06;0.00;60892.56;5864714;23;20006;-93
2022/06/19 07:45:30;;;;;;;1.00;0.50;;;;;;;-145.06;0.00;60892.56;5942880;23;20081;-94
2022/06/19 07:51:49;;;;;;;1.42;0.70;;;;;;;-145.06;0.00;60892.56;5874352;23;20007;-93
2022/06/19 07:58:33;;;;;;;2.13;0.60;;;;;;;-145.06;0.00;60892.56;5859177;23;20007;-94
2022/06/19 08:01:28;;;;;;;0.80;0.60;;;;;;;-145.06;0.00;60892.56;5836818;23;20007;-94
2022/06/19 08:04:08;;;;;;;2.10;0.70;;;;;;;-145.06;0.00;60892.56;5836609;23;20704;-93
2022/06/19 08:06:59;;;;;;;1.83;0.70;;;;;;;-145.06;0.00;60892.56;5836870;23;20007;-93
2022/06/19 08:10:17;;;;;;;2.08;0.75;;;;;;;-145.06;0.00;60892.56;5836797;23;20082;-94
2022/06/19 08:13:52;;;;;;;;;;;;;;;;;;;;;
2022/06/19 08:16:31;;;;;;;2.20;0.80;;;;;;;-145.06;0.00;60892.56;5921764;23;20014;-94
2022/06/19 08:19:10;;;;;;;2.03;0.75;;;;;;;-145.06;0.00;60892.56;5942879;23;20301;-93
2022/06/19 08:21:49;;;;;;;5.65;0.93;;;;;;;-145.06;0.00;60892.56;5943157;23;20037;-93
2022/06/19 08:32:11;;;;;;;1.25;0.70;;;;;;;-145.06;0.00;60892.56;5953472;23;20006;-94
2022/06/19 08:40:01;;;;;;;;;;;;;;;;;;;;;
